Airport Name : Viracopos

Other Name : CampinaViracopos

ICAO : SBKP

IATA : VCP

FAA :

Latitude : -23.007383

Longitude : -47.134522

Country : Brazil

Local Date and Time : 8/22/2018 2:47:00 AM

 

TAF (Terminal Aerodrome Forecast)

TAF SBKP 220200Z 2206/2306 12010KT 8000 NSC TN14/2209Z TX27/2218Z PROB30 2208/2211 4000 BR BECMG 2211/2213 09005KT BECMG 2213/2215 31005KT 9999 SCT040 BECMG 2216/2218 28007KT CAVOK BECMG 2220/2222 15006KT BECMG 2300/2302 11010KT RMK PGE

 

METAR (METeorological Aerodrome Report)

SBKP 220500Z 13007KT CAVOK 16/13 Q1021

SBKP 220400Z 13013KT 9000 NSC 16/13 Q1021

SBKP 220300Z 12013KT CAVOK 17/13 Q1021

SBKP 220200Z 12011KT CAVOK 17/13 Q1022